Time;durP1;ratioP1;P1;durP2;ratioP2;P2;SDS_P1;SDS_P2;PMS_P1;PMS_P2;Temp;Humidity;BMP_temperature;BMP_pressure;BME280_temperature;BME280_humidity;BME280_pressure;Samples;Min_cycle;Max_cycle;Signal;HPM_P1;HPM_P2
2022/05/15 00:25:24;;;;;;;6.65;3.20;;;;;;;7.74;50.50;102235.69;4984592;28;20045;-82
2022/05/15 01:02:21;;;;;;;12.48;3.35;;;;;;;6.65;51.26;102237.81;5022580;28;20073;-79
2022/05/15 01:09:57;;;;;;;11.73;2.97;;;;;;;6.57;51.60;102234.38;4997691;28;20249;-80
2022/05/15 02:26:33;;;;;;;15.13;3.15;;;;;;;6.26;52.26;102239.53;4918704;29;20062;-75
2022/05/15 03:19:21;;;;;;;10.30;2.33;;;;;;;5.87;52.02;102241.25;5007620;28;20053;-80
2022/05/15 03:26:12;;;;;;;6.43;3.60;;;;;;;5.93;51.60;102241.28;4985578;28;20053;-79
2022/05/15 05:53:34;;;;;;;15.75;3.22;;;;;;;21.08;28.26;102272.91;4999998;28;20108;-78
2022/05/15 05:56:29;;;;;;;14.13;3.00;;;;;;;21.42;27.57;102276.94;4997411;28;20042;-81
2022/05/15 05:58:56;;;;;;;11.15;3.08;;;;;;;22.16;26.92;102270.34;4977089;28;20063;-78
2022/05/15 06:01:21;;;;;;;13.32;4.10;;;;;;;22.44;26.66;102273.78;4984043;28;20037;-78
2022/05/15 06:06:31;;;;;;;10.98;3.38;;;;;;;23.41;25.07;102272.31;4993592;28;20033;-81
2022/05/15 06:08:57;;;;;;;18.85;4.03;;;;;;;23.45;25.25;102275.59;4992161;28;20065;-78
2022/05/15 06:11:23;;;;;;;11.50;3.28;;;;;;;23.79;23.72;102269.47;4984175;28;20057;-77
2022/05/15 06:13:49;;;;;;;14.05;3.67;;;;;;;24.03;23.67;102268.63;4976224;28;20043;-80
2022/05/15 06:16:14;;;;;;;12.45;4.28;;;;;;;24.29;24.08;102268.44;4978805;28;20053;-81
2022/05/15 06:18:40;;;;;;;7.82;2.80;;;;;;;23.83;25.14;102270.97;4978035;28;20038;-77
2022/05/15 06:21:06;;;;;;;15.38;3.85;;;;;;;24.52;23.79;102264.84;4976288;28;20653;-80
2022/05/15 06:23:32;;;;;;;11.27;3.80;;;;;;;24.85;23.17;102271.19;5008329;28;20581;-83
2022/05/15 06:25:57;;;;;;;18.30;4.85;;;;;;;24.76;22.53;102274.59;4978071;28;20073;-77
2022/05/15 06:28:23;;;;;;;12.35;3.72;;;;;;;24.69;23.15;102282.25;4994862;28;20078;-80
2022/05/15 06:30:49;;;;;;;15.63;4.13;;;;;;;25.04;23.30;102282.16;4976340;28;20038;-80
2022/05/15 06:33:14;;;;;;;14.40;4.93;;;;;;;25.63;22.48;102288.16;4976692;28;20042;-81
2022/05/15 06:35:40;;;;;;;19.42;4.53;;;;;;;25.85;21.43;102288.06;4998470;28;20065;-80
2022/05/15 06:38:07;;;;;;;12.73;4.10;;;;;;;25.39;22.60;102286.47;4991847;28;20344;-76
2022/05/15 06:40:33;;;;;;;9.32;4.07;;;;;;;25.62;22.35;102289.09;4978262;28;20034;-81
2022/05/15 06:42:59;;;;;;;18.17;3.72;;;;;;;23.69;24.37;102284.47;4993989;28;20408;-83
2022/05/15 06:45:27;;;;;;;13.57;4.32;;;;;;;23.38;24.22;102281.38;4977086;28;20038;-82
2022/05/15 06:47:53;;;;;;;15.10;4.18;;;;;;;22.77;26.12;102288.41;4976264;28;20054;-81
2022/05/15 06:50:18;;;;;;;14.57;3.90;;;;;;;22.51;26.72;102288.38;4993069;28;20473;-83
2022/05/15 06:52:44;;;;;;;13.35;3.47;;;;;;;24.16;24.58;102280.06;4980868;28;20049;-80
2022/05/15 06:55:14;;;;;;;13.68;3.72;;;;;;;24.04;23.85;102281.00;4976478;28;20126;-82
2022/05/15 06:57:41;;;;;;;14.93;4.63;;;;;;;22.22;25.82;102281.53;4990432;28;20117;-80
2022/05/15 07:00:10;;;;;;;11.95;4.18;;;;;;;22.32;26.60;102277.28;4976748;28;20034;-81
2022/05/15 07:02:37;;;;;;;16.15;3.83;;;;;;;23.59;26.35;102280.78;4975354;28;20074;-80
2022/05/15 07:05:04;;;;;;;12.15;3.88;;;;;;;22.31;26.31;102278.25;5008799;28;20125;-79
2022/05/15 07:07:30;;;;;;;15.93;4.28;;;;;;;20.44;28.04;102275.03;4972172;28;20080;-81
2022/05/15 07:09:56;;;;;;;11.15;4.00;;;;;;;20.83;28.23;102277.06;4977046;28;20102;-82
2022/05/15 07:12:24;;;;;;;13.90;3.72;;;;;;;22.46;26.05;102279.84;4976668;28;20042;-82
2022/05/15 07:14:50;;;;;;;15.40;4.47;;;;;;;23.95;23.95;102276.38;5011606;28;20041;-82
2022/05/15 07:17:15;;;;;;;12.10;3.03;;;;;;;25.30;22.45;102281.88;4978201;28;20420;-79
2022/05/15 07:19:41;;;;;;;11.52;2.70;;;;;;;26.36;21.74;102273.09;4975827;28;20062;-77
2022/05/15 07:22:08;;;;;;;11.38;3.38;;;;;;;26.78;20.19;102277.53;4971724;28;20030;-80
2022/05/15 07:24:38;;;;;;;9.43;2.63;;;;;;;27.45;19.74;102276.03;4989109;28;20057;-81
2022/05/15 07:27:05;;;;;;;9.82;2.72;;;;;;;27.16;19.50;102279.53;4993139;28;20673;-79
2022/05/15 07:29:33;;;;;;;17.38;3.53;;;;;;;25.67;22.36;102278.88;4993282;28;20034;-80
2022/05/15 07:31:59;;;;;;;8.23;3.05;;;;;;;25.14;21.81;102282.28;4965549;28;20037;-76
2022/05/15 07:34:25;;;;;;;9.32;2.88;;;;;;;25.40;21.45;102284.66;4976295;28;20034;-78
2022/05/15 07:36:52;;;;;;;5.97;2.03;;;;;;;27.03;19.92;102287.81;4973769;28;20084;-82
2022/05/15 07:39:21;;;;;;;10.05;2.72;;;;;;;28.57;17.94;102284.47;4971427;28;20059;-80
2022/05/15 07:41:48;;;;;;;11.20;3.22;;;;;;;28.20;18.65;102279.88;4973185;28;20049;-79
2022/05/15 07:44:14;;;;;;;6.13;2.53;;;;;;;28.99;17.71;102281.31;4992612;28;20043;-82
2022/05/15 07:46:40;;;;;;;4.15;1.77;;;;;;;29.19;17.75;102284.78;5010373;28;20041;-78
2022/05/15 07:49:07;;;;;;;10.90;2.72;;;;;;;29.01;17.95;102284.69;4981345;28;20116;-79
2022/05/15 07:51:34;;;;;;;12.00;2.70;;;;;;;27.29;19.78;102284.63;4973061;28;20034;-79
2022/05/15 07:53:59;;;;;;;6.25;2.13;;;;;;;28.42;18.20;102284.09;5001680;28;20035;-80
2022/05/15 07:56:25;;;;;;;7.57;2.10;;;;;;;28.41;18.32;102282.41;5002388;28;20654;-78
2022/05/15 07:58:51;;;;;;;8.90;2.85;;;;;;;28.33;18.54;102280.44;4966094;28;20038;-80
2022/05/15 08:01:17;;;;;;;9.70;2.05;;;;;;;28.67;17.39;102279.91;5006741;28;20034;-79
2022/05/15 08:03:43;;;;;;;8.85;2.40;;;;;;;27.83;18.30;102277.06;4983915;28;20048;-79
2022/05/15 08:08:56;;;;;;;8.40;2.05;;;;;;;27.45;19.12;102274.22;4983823;28;20134;-80
2022/05/15 08:11:26;;;;;;;12.30;2.88;;;;;;;29.88;16.87;102269.78;5007251;28;20084;-82
2022/05/15 08:13:52;;;;;;;6.88;2.30;;;;;;;29.20;17.54;102267.63;4968216;28;20129;-82
2022/05/15 08:16:18;;;;;;;10.73;3.30;;;;;;;29.05;17.82;102269.94;4973522;28;20670;-80
2022/05/15 08:24:14;;;;;;;6.90;2.30;;;;;;;28.46;18.17;102266.66;5002248;28;20074;-78
2022/05/15 08:26:41;;;;;;;7.93;1.75;;;;;;;28.14;18.05;102264.34;5001620;28;20034;-79
2022/05/15 08:29:07;;;;;;;5.97;1.17;;;;;;;29.20;17.69;102269.50;4966746;28;20049;-79
2022/05/15 08:31:33;;;;;;;10.05;1.70;;;;;;;28.63;17.60;102265.06;4969214;28;20031;-79
2022/05/15 08:33:59;;;;;;;7.25;2.28;;;;;;;28.83;17.60;102268.50;4965425;28;20057;-78
2022/05/15 08:36:25;;;;;;;6.18;1.88;;;;;;;29.18;16.63;102268.78;4989183;28;20552;-78
2022/05/15 08:38:50;;;;;;;8.00;1.10;;;;;;;29.70;16.29;102263.59;4963746;28;20046;-81
2022/05/15 08:41:16;;;;;;;9.40;2.08;;;;;;;29.34;16.98;102263.56;4989691;28;20026;-80
2022/05/15 08:44:01;;;;;;;7.03;1.15;;;;;;;29.20;16.61;102261.41;4961300;28;20054;-80
2022/05/15 08:46:37;;;;;;;11.05;1.73;;;;;;;28.49;17.15;102260.16;4967933;28;20408;-80
2022/05/15 08:49:29;;;;;;;7.68;1.90;;;;;;;28.42;17.23;102259.88;4981243;28;20405;-80
2022/05/15 08:52:05;;;;;;;10.48;1.77;;;;;;;28.08;17.83;102264.91;4940728;28;20065;-79
2022/05/15 08:54:36;;;;;;;8.25;1.63;;;;;;;27.41;18.04;102261.22;4982700;28;20670;-80
2022/05/15 08:57:03;;;;;;;6.85;0.90;;;;;;;26.96;18.90;102250.91;4999462;28;20153;-80
2022/05/15 08:59:38;;;;;;;7.32;1.75;;;;;;;27.41;18.67;102254.00;4968064;28;20026;-80
2022/05/15 09:02:05;;;;;;;6.55;0.98;;;;;;;28.20;17.86;102253.00;4936597;28;20064;-78
2022/05/15 09:04:31;;;;;;;5.28;1.40;;;;;;;29.27;17.29;102255.25;4957258;28;20034;-78
2022/05/15 09:07:04;;;;;;;6.10;1.55;;;;;;;28.25;17.38;102248.03;4970802;28;20026;-78
2022/05/15 09:09:57;;;;;;;7.95;1.63;;;;;;;27.11;19.43;102253.09;4971386;28;20574;-79
2022/05/15 09:12:25;;;;;;;6.30;1.23;;;;;;;26.16;19.70;102253.34;4971162;28;20133;-82
2022/05/15 09:15:00;;;;;;;5.93;1.60;;;;;;;25.96;20.36;102254.19;4972540;28;20121;-79
2022/05/15 09:17:44;;;;;;;8.07;1.63;;;;;;;25.30;21.68;102265.81;4970063;28;20050;-79
2022/05/15 09:20:16;;;;;;;9.43;2.38;;;;;;;25.25;22.25;102249.28;4987752;28;20509;-78
2022/05/15 09:22:54;;;;;;;6.00;1.35;;;;;;;25.13;20.12;102250.28;4969210;28;20070;-80
2022/05/15 09:25:25;;;;;;;11.13;2.08;;;;;;;25.14;22.73;102255.50;4965282;28;20026;-80
2022/05/15 09:28:08;;;;;;;7.50;1.10;;;;;;;23.91;22.44;102254.38;4969656;28;20057;-77
2022/05/15 09:30:38;;;;;;;6.38;1.50;;;;;;;22.74;24.89;102259.28;4983878;28;20121;-79
2022/05/15 09:33:06;;;;;;;7.57;2.13;;;;;;;22.22;25.03;102254.91;5002919;28;20065;-81
2022/05/15 09:35:41;;;;;;;10.43;2.17;;;;;;;21.50;26.12;102257.88;4957598;28;20057;-78
2022/05/15 09:38:27;;;;;;;4.47;1.38;;;;;;;22.07;25.21;102252.31;4966485;28;20035;-77
2022/05/15 09:43:54;;;;;;;6.07;1.73;;;;;;;22.37;26.63;102253.84;4984222;28;20078;-78
2022/05/15 09:46:22;;;;;;;6.13;1.25;;;;;;;22.13;26.74;102251.91;4967865;28;20026;-80
2022/05/15 09:48:57;;;;;;;9.57;1.70;;;;;;;22.34;25.68;102248.75;4970210;28;20489;-80
2022/05/15 09:51:48;;;;;;;9.73;1.85;;;;;;;22.47;24.98;102248.72;4963998;28;20047;-78
2022/05/15 09:54:37;;;;;;;6.97;1.53;;;;;;;23.13;23.55;102246.78;4990601;28;20658;-80
2022/05/15 09:57:16;;;;;;;6.07;1.25;;;;;;;22.73;24.95;102249.63;5001768;28;20066;-77
2022/05/15 09:59:51;;;;;;;9.43;1.55;;;;;;;22.42;24.87;102234.88;4971429;28;20034;-78
2022/05/15 10:02:23;;;;;;;12.45;2.55;;;;;;;22.30;26.56;102241.94;4969033;28;20088;-78
2022/05/15 10:04:51;;;;;;;10.93;1.90;;;;;;;21.90;27.16;102233.94;4972758;28;20114;-81
2022/05/15 10:07:57;;;;;;;10.32;1.85;;;;;;;22.12;26.37;102234.22;4955384;28;20042;-77
2022/05/15 10:10:37;;;;;;;7.22;2.78;;;;;;;22.10;27.23;102232.63;4986218;28;20035;-78
2022/05/15 10:13:44;;;;;;;8.43;2.17;;;;;;;21.77;25.77;102240.06;4967891;28;20049;-79
2022/05/15 10:16:15;;;;;;;11.55;2.55;;;;;;;21.26;28.55;102239.84;4980008;28;20197;-78
2022/05/15 10:19:20;;;;;;;4.68;1.45;;;;;;;21.62;26.45;102230.44;4988914;28;20046;-80
2022/05/15 10:21:55;;;;;;;6.10;1.75;;;;;;;22.22;24.94;102228.28;4971917;28;20125;-77
2022/05/15 10:24:29;;;;;;;8.40;1.90;;;;;;;22.08;25.48;102231.84;4972996;28;20035;-77
2022/05/15 10:27:35;;;;;;;12.65;2.63;;;;;;;22.09;26.53;102234.44;4990226;28;20448;-79
2022/05/15 10:30:10;;;;;;;7.38;2.15;;;;;;;22.07;26.48;102233.66;4934223;28;20880;-79
2022/05/15 10:32:54;;;;;;;10.05;2.13;;;;;;;22.15;26.04;102215.38;4953707;28;20123;-77
2022/05/15 10:35:35;;;;;;;11.60;1.77;;;;;;;22.70;26.24;102224.03;4969457;28;20046;-76
2022/05/15 10:38:27;;;;;;;8.50;2.10;;;;;;;22.85;25.92;102226.56;5001585;28;20042;-79
2022/05/15 10:40:58;;;;;;;7.15;1.33;;;;;;;22.40;25.63;102227.00;4990289;28;20097;-78
2022/05/15 10:43:42;;;;;;;8.85;2.05;;;;;;;21.96;28.23;102234.38;4977712;28;20058;-78
2022/05/15 10:46:35;;;;;;;6.40;1.73;;;;;;;22.71;26.55;102227.53;4971707;28;20062;-78
2022/05/15 10:49:29;;;;;;;8.77;1.83;;;;;;;23.10;25.99;102223.00;4968643;28;20046;-79
2022/05/15 10:52:06;;;;;;;7.40;2.20;;;;;;;22.84;26.57;102216.88;4965094;28;20038;-80
2022/05/15 10:57:34;;;;;;;16.05;4.72;;;;;;;23.00;25.00;102215.63;4983017;28;20263;-79
2022/05/15 11:00:08;;;;;;;;;;;;;;;22.81;26.04;102220.63;4963692;28;20034;-76
2022/05/15 11:02:46;;;;;;;7.40;2.05;;;;;;;22.31;25.78;102216.97;4985930;28;20634;-78
2022/05/15 11:05:28;;;;;;;11.43;2.28;;;;;;;22.48;27.60;102223.81;4970062;28;20030;-79
2022/05/15 11:08:19;;;;;;;11.75;2.42;;;;;;;22.61;26.12;102219.31;4967402;28;20499;-77
2022/05/15 11:10:53;;;;;;;8.27;2.08;;;;;;;22.27;26.55;102226.13;4970064;28;20030;-78
2022/05/15 11:13:28;;;;;;;9.75;1.88;;;;;;;22.63;26.69;102213.88;4966241;28;20415;-78
2022/05/15 11:16:06;;;;;;;9.40;2.40;;;;;;;21.41;27.61;102221.19;4982259;28;20034;-76
2022/05/15 11:18:56;;;;;;;10.60;2.75;;;;;;;21.12;28.96;102214.13;4968468;28;20594;-78
2022/05/15 11:21:30;;;;;;;10.98;5.22;;;;;;;21.76;28.18;102211.78;5000212;28;20050;-79
2022/05/15 11:24:23;;;;;;;13.60;3.47;;;;;;;22.48;26.82;102203.34;4984473;28;20049;-79
2022/05/15 11:26:56;;;;;;;15.25;3.45;;;;;;;22.29;27.70;102203.78;4960567;28;20035;-78
2022/05/15 11:29:25;;;;;;;11.20;3.25;;;;;;;22.54;27.64;102199.41;4993693;28;20058;-76
2022/05/15 11:31:55;;;;;;;11.43;4.88;;;;;;;21.58;27.61;102191.72;4986638;28;20042;-77
2022/05/15 11:35:00;;;;;;;12.68;4.90;;;;;;;22.35;26.89;102186.53;4982326;28;20023;-77
2022/05/15 11:37:42;;;;;;;12.30;4.88;;;;;;;22.48;26.99;102183.84;4984588;28;20066;-77
2022/05/15 11:40:29;;;;;;;9.82;4.63;;;;;;;22.17;26.74;102178.00;4988458;28;20054;-77
2022/05/15 11:42:55;;;;;;;6.05;2.20;;;;;;;22.65;28.08;102166.66;4971189;28;20038;-79
2022/05/15 11:45:36;;;;;;;6.13;1.92;;;;;;;23.20;26.58;102174.19;4981290;28;20030;-80
2022/05/15 11:48:19;;;;;;;6.40;1.43;;;;;;;22.40;26.41;102171.06;4972652;28;20054;-79
2022/05/15 11:51:14;;;;;;;11.38;2.50;;;;;;;22.72;26.07;102170.63;4973024;28;20065;-78
2022/05/15 11:53:48;;;;;;;11.75;2.80;;;;;;;22.73;27.18;102164.34;4985041;28;20038;-80
2022/05/15 11:56:19;;;;;;;12.20;2.72;;;;;;;22.87;26.46;102161.50;5003857;28;20034;-79
2022/05/15 11:58:51;;;;;;;;;;;;;;;22.96;26.82;102158.19;5003059;28;20054;-79
2022/05/15 12:01:35;;;;;;;6.78;2.60;;;;;;;22.19;27.51;102146.78;4988451;28;19922;-77
2022/05/15 12:04:05;;;;;;;13.25;2.20;;;;;;;22.37;27.52;102152.63;4989316;28;20054;-79
2022/05/15 12:06:44;;;;;;;10.07;3.15;;;;;;;22.00;27.54;102152.50;4989843;28;20062;-78
2022/05/15 12:09:16;;;;;;;13.98;3.10;;;;;;;22.37;27.86;102155.31;4971598;28;20050;-76
2022/05/15 12:11:44;;;;;;;11.70;3.22;;;;;;;22.25;27.63;102156.16;4971991;28;20038;-80
2022/05/15 12:14:22;;;;;;;10.32;2.50;;;;;;;21.87;28.28;102156.94;4987831;28;21243;-78
2022/05/15 12:16:57;;;;;;;7.45;2.83;;;;;;;22.16;27.44;102161.19;4975570;28;20037;-79
2022/05/15 12:19:26;;;;;;;13.77;3.10;;;;;;;22.04;27.24;102151.34;4986675;28;20034;-79
2022/05/15 12:21:57;;;;;;;11.93;2.15;;;;;;;22.18;27.82;102148.63;4972930;28;20053;-80
2022/05/15 12:24:28;;;;;;;11.20;2.70;;;;;;;21.82;27.92;102145.78;4972965;28;20053;-80
2022/05/15 12:26:53;;;;;;;11.27;3.25;;;;;;;21.72;27.95;102143.75;4970074;28;20125;-75
2022/05/15 12:29:47;;;;;;;7.93;2.15;;;;;;;22.08;27.38;102141.34;4971203;28;20139;-78
2022/05/15 12:32:20;;;;;;;13.20;2.95;;;;;;;22.42;27.89;102145.16;4965109;28;20055;-78
2022/05/15 12:34:49;;;;;;;10.73;3.08;;;;;;;22.55;27.96;102142.50;4977013;28;20057;-80
2022/05/15 12:37:20;;;;;;;19.40;7.68;;;;;;;22.09;28.14;102149.25;4971383;28;20098;-78
2022/05/15 12:39:50;;;;;;;14.80;2.80;;;;;;;22.29;28.13;102136.34;4976986;28;20657;-78
2022/05/15 12:42:38;;;;;;;12.85;3.97;;;;;;;21.94;28.45;102145.81;4981473;28;20045;-77
2022/05/15 12:45:19;;;;;;;12.68;3.33;;;;;;;21.78;28.93;102145.16;4974156;28;20113;-80
2022/05/15 12:48:07;;;;;;;14.02;3.10;;;;;;;22.12;28.57;102142.88;4970790;28;20038;-77
2022/05/15 12:50:45;;;;;;;6.68;2.10;;;;;;;21.99;27.86;102142.81;4991221;28;20034;-77
2022/05/15 12:53:19;;;;;;;12.27;2.03;;;;;;;22.03;27.48;102133.66;4973904;28;20038;-77
2022/05/15 12:55:45;;;;;;;7.30;2.58;;;;;;;21.77;28.17;102133.63;4970077;28;20124;-79
2022/05/15 12:58:10;;;;;;;8.80;2.20;;;;;;;22.22;27.63;102127.09;4973504;28;20046;-80
2022/05/15 13:00:41;;;;;;;14.18;1.67;;;;;;;22.25;28.40;102122.41;5010984;28;20022;-80
2022/05/15 13:03:12;;;;;;;8.85;2.60;;;;;;;22.11;27.10;102131.34;4988349;28;20125;-80
2022/05/15 13:05:49;;;;;;;;;;;;;;;21.64;27.98;102131.91;4994263;28;20034;-77
2022/05/15 13:08:14;;;;;;;9.50;1.70;;;;;;;21.99;27.69;102116.19;5007257;28;20353;-76
2022/05/15 13:10:54;;;;;;;12.68;2.00;;;;;;;22.16;26.36;102113.25;4971748;28;20026;-78
2022/05/15 13:13:46;;;;;;;9.65;2.15;;;;;;;21.73;27.65;102121.50;4971512;28;20042;-78
2022/05/15 13:16:19;;;;;;;9.30;2.45;;;;;;;21.81;27.04;102125.47;5004325;28;20511;-80
2022/05/15 13:18:47;;;;;;;11.30;2.80;;;;;;;21.81;27.40;102120.13;4972583;28;20057;-80
2022/05/15 13:21:19;;;;;;;12.00;1.60;;;;;;;21.57;27.59;102123.50;4973423;28;20500;-79
2022/05/15 13:23:46;;;;;;;10.20;2.10;;;;;;;22.12;27.71;102116.25;4989398;28;20042;-78
2022/05/15 13:26:20;;;;;;;8.15;1.33;;;;;;;22.43;26.37;102117.59;4973905;28;20472;-82
2022/05/15 13:28:46;;;;;;;9.85;2.20;;;;;;;22.24;28.01;102114.53;4975103;28;20038;-81
2022/05/15 13:31:13;;;;;;;9.45;2.55;;;;;;;22.28;25.81;102105.34;4975844;28;20038;-78
2022/05/15 13:33:43;;;;;;;7.60;2.45;;;;;;;21.85;26.77;102108.34;4994165;28;20115;-83
2022/05/15 13:36:14;;;;;;;11.05;1.65;;;;;;;21.45;28.15;102106.53;4978949;28;20036;-81
2022/05/15 13:44:15;;;;;;;4.45;1.35;;;;;;;22.11;27.60;102096.72;4990551;28;20456;-80
2022/05/15 13:46:58;;;;;;;8.52;1.70;;;;;;;22.23;27.67;102086.19;4975177;28;20030;-80
2022/05/15 13:49:24;;;;;;;14.88;1.90;;;;;;;21.77;27.68;102095.53;4969251;28;20100;-80
2022/05/15 13:51:52;;;;;;;12.82;1.95;;;;;;;21.95;27.91;102083.59;4988038;28;20041;-79
2022/05/15 13:54:29;;;;;;;10.32;1.88;;;;;;;21.34;28.40;102093.09;4964647;28;20070;-80
2022/05/15 13:56:55;;;;;;;9.30;1.85;;;;;;;21.82;28.65;102087.22;4979233;28;20073;-80
2022/05/15 13:59:57;;;;;;;6.22;2.47;;;;;;;21.94;27.56;102086.41;4990820;28;20026;-76
2022/05/15 14:03:02;;;;;;;7.65;1.60;;;;;;;21.69;27.87;102082.78;4943761;28;20042;-80
2022/05/15 14:05:34;;;;;;;7.20;1.40;;;;;;;21.34;28.48;102072.69;4979570;28;20026;-79
2022/05/15 14:08:19;;;;;;;;;;;;;;;20.85;29.25;102075.94;4946182;28;20053;-79
2022/05/15 14:10:59;;;;;;;4.70;1.20;;;;;;;20.80;28.47;102080.66;4984283;28;19957;-80
2022/05/15 14:13:29;;;;;;;7.30;1.63;;;;;;;21.17;29.18;102083.59;4985333;28;20060;-80
2022/05/15 14:15:56;;;;;;;5.32;1.65;;;;;;;21.31;28.16;102093.28;4972490;28;20258;-77
2022/05/15 14:18:35;;;;;;;5.03;1.65;;;;;;;21.76;28.12;102081.38;4976851;28;20114;-79
2022/05/15 14:21:15;;;;;;;6.30;1.20;;;;;;;22.45;27.78;102074.84;4975801;28;20033;-78
2022/05/15 14:23:41;;;;;;;5.38;1.48;;;;;;;21.89;27.47;102067.22;4971852;28;20045;-78
2022/05/15 14:26:09;;;;;;;6.75;2.03;;;;;;;21.80;27.98;102067.84;4972024;28;20026;-79
2022/05/15 14:28:35;;;;;;;7.03;1.45;;;;;;;21.68;28.13;102074.88;4979632;28;20230;-80
2022/05/15 14:31:01;;;;;;;6.18;1.35;;;;;;;22.00;28.43;102064.66;4985141;28;21065;-79
2022/05/15 14:33:28;;;;;;;8.65;1.63;;;;;;;21.36;28.99;102060.13;4983658;28;20049;-79
2022/05/15 14:36:04;;;;;;;7.45;1.27;;;;;;;20.59;29.75;102077.56;4969098;28;20035;-79
2022/05/15 14:38:30;;;;;;;7.35;1.98;;;;;;;20.33;29.78;102068.63;4986245;28;20049;-78
2022/05/15 14:40:56;;;;;;;8.98;1.85;;;;;;;20.45;30.26;102072.28;4988048;28;20045;-78
2022/05/15 14:43:22;;;;;;;8.98;1.48;;;;;;;21.24;29.08;102063.59;4976998;28;20120;-78
2022/05/15 14:46:00;;;;;;;7.88;1.60;;;;;;;20.81;30.01;102065.56;5006723;28;20065;-77
2022/05/15 14:48:28;;;;;;;10.68;1.70;;;;;;;21.09;28.99;102062.84;4991050;28;20050;-77
2022/05/15 14:50:56;;;;;;;6.07;1.30;;;;;;;20.91;28.52;102054.28;5006501;28;20042;-78
2022/05/15 14:53:26;;;;;;;6.50;2.03;;;;;;;20.49;30.36;102052.56;4964735;28;20108;-79
2022/05/15 14:56:10;;;;;;;7.28;1.48;;;;;;;20.22;30.01;102049.84;4980355;28;20042;-79
2022/05/15 14:58:43;;;;;;;7.68;5.25;;;;;;;20.35;29.96;102049.91;4948885;28;20203;-78
2022/05/15 15:01:09;;;;;;;12.38;3.08;;;;;;;20.26;30.59;102049.56;4985886;28;20031;-80
2022/05/15 15:03:34;;;;;;;6.15;1.67;;;;;;;20.36;29.93;102047.16;4971267;28;20041;-75
2022/05/15 15:06:00;;;;;;;10.35;2.25;;;;;;;20.21;30.20;102045.47;4973765;28;20057;-78
2022/05/15 15:08:28;;;;;;;6.68;1.65;;;;;;;19.87;30.63;102050.19;4972419;28;20116;-78
2022/05/15 15:11:35;;;;;;;5.43;2.00;;;;;;;19.47;31.40;102041.97;4969230;28;20070;-78
2022/05/15 15:14:04;;;;;;;11.13;1.85;;;;;;;20.05;30.01;102038.44;4990422;28;20054;-80
2022/05/15 15:16:32;;;;;;;14.63;1.80;;;;;;;20.29;29.99;102035.25;4992277;28;20029;-80
2022/05/15 15:18:58;;;;;;;9.00;1.90;;;;;;;20.47;28.83;102034.06;4975959;28;20121;-80
2022/05/15 15:21:25;;;;;;;7.28;1.00;;;;;;;20.25;30.23;102033.72;4975090;28;20060;-80
2022/05/15 15:23:51;;;;;;;5.57;1.90;;;;;;;19.68;30.75;102024.81;4935461;28;20054;-77
2022/05/15 15:26:17;;;;;;;5.35;1.60;;;;;;;19.54;31.21;102024.72;4972270;28;20099;-77
2022/05/15 15:28:44;;;;;;;8.20;2.05;;;;;;;19.59;31.61;102028.00;4987697;28;20420;-78
2022/05/15 15:31:10;;;;;;;4.82;1.48;;;;;;;19.45;31.37;102017.34;4970884;28;20508;-78
2022/05/15 15:33:37;;;;;;;4.97;1.48;;;;;;;19.20;31.55;102020.59;4971702;28;20077;-79
2022/05/15 15:36:03;;;;;;;11.82;1.52;;;;;;;19.30;31.80;102017.31;4991155;28;20845;-80
2022/05/15 15:38:28;;;;;;;6.97;1.55;;;;;;;19.07;31.74;102023.09;4991305;28;20069;-77
2022/05/15 15:40:57;;;;;;;12.27;2.15;;;;;;;18.91;31.97;102017.00;4991565;28;20031;-78
2022/05/15 15:43:25;;;;;;;7.10;1.75;;;;;;;19.12;31.92;102015.72;4987305;28;20046;-81
2022/05/15 15:45:50;;;;;;;9.80;1.27;;;;;;;19.02;31.43;102020.72;4976657;28;20488;-78
2022/05/15 15:48:17;;;;;;;4.18;1.10;;;;;;;18.94;31.62;102017.66;4969497;28;20061;-81
2022/05/15 15:50:43;;;;;;;8.55;1.17;;;;;;;19.00;31.40;102021.75;5009670;28;20034;-78
2022/05/15 15:53:13;;;;;;;8.30;1.15;;;;;;;18.78;32.17;102016.78;4972057;28;20046;-79
2022/05/15 15:55:39;;;;;;;8.65;1.38;;;;;;;18.71;31.88;102005.69;4972358;28;20149;-80
2022/05/15 15:58:08;;;;;;;7.65;1.25;;;;;;;18.33;32.69;102000.75;4991074;28;20563;-79
2022/05/15 16:00:36;;;;;;;7.47;2.33;;;;;;;18.20;32.25;102013.81;5011320;28;20039;-77
2022/05/15 16:03:02;;;;;;;2.80;1.33;;;;;;;18.56;32.56;102009.22;4990189;28;20420;-78
2022/05/15 16:05:28;;;;;;;6.13;0.77;;;;;;;18.75;31.02;102001.94;4974566;28;20038;-77
2022/05/15 16:10:50;;;;;;;7.82;1.20;;;;;;;18.76;30.34;101998.34;4982490;28;20058;-80
2022/05/15 16:13:15;;;;;;;9.88;2.13;;;;;;;18.19;31.21;101992.75;4964654;28;20399;-78
2022/05/15 16:15:43;;;;;;;8.40;1.50;;;;;;;18.35;31.12;102003.34;4995041;28;20125;-82
2022/05/15 16:18:08;;;;;;;3.00;1.33;;;;;;;18.35;31.65;101996.22;4984403;28;20282;-77
2022/05/15 16:20:46;;;;;;;6.13;0.93;;;;;;;18.50;31.86;101988.38;4977071;28;20635;-78
2022/05/15 16:23:16;;;;;;;4.97;0.98;;;;;;;18.22;32.25;101989.91;4969706;28;20141;-80
2022/05/15 16:25:42;;;;;;;9.55;1.58;;;;;;;18.12;32.32;101972.78;5007371;28;20034;-80
2022/05/15 16:28:08;;;;;;;8.93;1.40;;;;;;;18.04;32.77;101979.34;4973928;28;20120;-79
2022/05/15 16:30:34;;;;;;;6.47;1.17;;;;;;;18.16;32.57;101967.28;5011462;28;20061;-79
2022/05/15 16:33:01;;;;;;;9.23;0.95;;;;;;;18.37;32.40;101973.19;5013913;28;20054;-79
2022/05/15 16:35:26;;;;;;;8.35;0.90;;;;;;;18.58;31.54;101970.25;4977596;28;20034;-77
2022/05/15 16:37:52;;;;;;;4.65;1.05;;;;;;;18.22;32.00;101968.75;4972278;28;20109;-79
2022/05/15 16:40:18;;;;;;;4.25;1.00;;;;;;;18.21;32.56;101964.41;4991206;28;20505;-78
2022/05/15 16:42:45;;;;;;;7.53;1.75;;;;;;;17.93;32.87;101963.22;4972129;28;20034;-78
2022/05/15 16:45:18;;;;;;;4.85;0.95;;;;;;;17.68;33.25;101965.47;4974600;28;20045;-80
2022/05/15 16:47:43;;;;;;;5.40;0.93;;;;;;;17.93;33.51;101950.00;4973217;28;20038;-79
2022/05/15 16:50:18;;;;;;;2.78;1.08;;;;;;;17.74;32.88;101955.44;4976841;28;20167;-79
2022/05/15 16:52:50;;;;;;;7.93;1.27;;;;;;;17.56;33.38;101957.25;4975856;28;20425;-78
2022/05/15 16:55:22;;;;;;;5.10;1.20;;;;;;;17.50;33.58;101959.38;4976655;28;20054;-78
2022/05/15 16:57:48;;;;;;;9.30;1.65;;;;;;;17.59;33.38;101966.81;4984382;28;20053;-80
2022/05/15 17:00:14;;;;;;;13.90;1.10;;;;;;;17.35;33.96;101963.63;4980091;28;20034;-79
2022/05/15 17:02:44;;;;;;;5.80;0.95;;;;;;;17.39;33.52;101965.19;4978094;28;20058;-81
2022/05/15 17:05:12;;;;;;;6.28;1.00;;;;;;;17.33;33.78;101968.13;4984566;28;20052;-77
2022/05/15 17:07:38;;;;;;;4.93;0.50;;;;;;;16.87;34.58;101973.09;5011488;28;20030;-77
2022/05/15 17:10:10;;;;;;;10.25;1.00;;;;;;;17.01;34.73;101970.63;5012405;28;20061;-75
2022/05/15 17:12:36;;;;;;;5.22;1.30;;;;;;;16.98;34.58;101976.06;4994343;28;20061;-77
2022/05/15 17:15:06;;;;;;;4.13;0.88;;;;;;;16.80;35.01;101973.41;4980224;28;20125;-79
2022/05/15 17:17:32;;;;;;;5.72;0.80;;;;;;;16.13;35.87;101979.19;4954144;28;20083;-79
2022/05/15 17:19:58;;;;;;;9.15;1.10;;;;;;;15.91;36.48;101982.81;4977002;28;20744;-79
2022/05/15 17:22:23;;;;;;;5.45;0.77;;;;;;;16.14;35.83;101980.94;4989919;28;20049;-78
2022/05/15 17:24:50;;;;;;;4.45;0.95;;;;;;;16.03;36.08;101975.28;5011116;28;20035;-75
2022/05/15 17:27:25;;;;;;;4.88;1.08;;;;;;;16.15;36.06;101991.41;4986873;28;20038;-78
2022/05/15 17:35:19;;;;;;;10.18;2.28;;;;;;;15.26;37.77;101978.63;5008195;28;20030;-80
2022/05/15 17:37:46;;;;;;;8.88;1.42;;;;;;;15.51;37.60;101976.66;4946983;28;20041;-76
2022/05/15 17:40:18;;;;;;;14.45;1.98;;;;;;;15.38;37.23;101972.84;4998808;28;20045;-79
2022/05/15 17:42:45;;;;;;;6.03;1.75;;;;;;;15.14;38.29;101969.44;4995394;28;20104;-79
2022/05/15 17:45:15;;;;;;;7.05;0.82;;;;;;;15.03;38.75;101967.25;4972943;28;20034;-77
2022/05/15 17:47:40;;;;;;;5.38;1.33;;;;;;;15.02;38.96;101970.81;4970261;28;20118;-77
2022/05/15 17:50:08;;;;;;;8.90;1.33;;;;;;;15.14;38.92;101961.53;4973044;28;20114;-78
2022/05/15 17:52:34;;;;;;;7.57;1.02;;;;;;;14.74;39.82;101961.41;4970879;28;20536;-78
2022/05/15 17:54:59;;;;;;;15.32;1.48;;;;;;;14.99;39.15;101960.38;4992477;28;20022;-78